createdAt,value
2023-03-25T00:02:48.278Z,8.26
2023-03-25T00:07:52.769Z,8.32
2023-03-25T00:12:54.505Z,8.24
2023-03-25T00:17:56.236Z,8.32
2023-03-25T00:22:57.894Z,8.27
2023-03-25T00:27:59.529Z,8.35
2023-03-25T00:33:01.867Z,8.25
2023-03-25T00:38:07.993Z,8.19
2023-03-25T00:43:10.970Z,8.27
2023-03-25T00:48:12.561Z,8.31
2023-03-25T00:53:14.343Z,8.26
2023-03-25T00:58:15.909Z,8.13
2023-03-25T01:03:18.788Z,8.18
2023-03-25T01:08:25.779Z,8.11
2023-03-25T01:13:27.545Z,8.11
2023-03-25T01:18:29.151Z,8.11
2023-03-25T01:23:30.792Z,8.15
2023-03-25T01:28:32.641Z,8.15
2023-03-25T01:33:34.290Z,8.20
2023-03-25T01:38:37.233Z,8.15
2023-03-25T01:43:38.910Z,8.19
2023-03-25T01:48:43.982Z,8.10
2023-03-25T01:53:46.988Z,8.02
2023-03-25T01:58:51.427Z,8.13
2023-03-25T02:04:02.983Z,8.07
2023-03-25T02:09:06.563Z,8.12
2023-03-25T02:14:11.814Z,8.17
2023-03-25T02:19:19.346Z,8.00
2023-03-25T02:24:24.000Z,8.00
2023-03-25T02:29:49.048Z,8.06
2023-03-25T02:35:13.806Z,8.00
2023-03-25T02:40:20.872Z,8.08
2023-03-25T02:45:29.752Z,7.97
2023-03-25T02:50:38.429Z,7.98
2023-03-25T02:55:41.848Z,7.88
2023-03-25T03:00:44.815Z,7.91
2023-03-25T03:05:51.446Z,7.89
2023-03-25T03:11:22.801Z,7.93
2023-03-25T03:16:40.316Z,7.82
2023-03-25T03:21:51.558Z,7.92
2023-03-25T03:27:05.724Z,7.80
2023-03-25T03:32:07.562Z,7.85
2023-03-25T03:37:17.442Z,7.90
2023-03-25T03:42:22.964Z,7.80
2023-03-25T03:47:28.330Z,7.95
2023-03-25T03:52:49.629Z,7.88
2023-03-25T03:58:02.785Z,7.79
2023-03-25T04:03:18.965Z,7.78
2023-03-25T04:08:34.292Z,7.82
2023-03-25T04:13:40.485Z,7.85
2023-03-25T04:18:43.671Z,7.75
2023-03-25T04:23:46.238Z,7.72
2023-03-25T04:28:47.861Z,7.67
2023-03-25T04:33:50.682Z,7.87
2023-03-25T04:38:53.186Z,7.82
2023-03-25T04:43:55.140Z,7.88
2023-03-25T04:48:57.235Z,7.84
2023-03-25T04:53:59.836Z,7.70
2023-03-25T04:59:01.436Z,7.74
2023-03-25T05:04:05.192Z,7.74
2023-03-25T05:09:09.360Z,7.69
2023-03-25T05:14:13.257Z,7.74
2023-03-25T05:19:16.399Z,7.72
2023-03-25T05:24:18.074Z,7.66
2023-03-25T05:29:19.733Z,7.75
2023-03-25T05:34:21.349Z,7.74
2023-03-25T05:39:23.209Z,7.80
2023-03-25T05:44:26.220Z,7.81
2023-03-25T05:49:28.488Z,7.75
2023-03-25T05:54:30.818Z,7.71
2023-03-25T05:59:33.375Z,7.60
2023-03-25T06:04:41.241Z,7.72
2023-03-25T06:09:46.185Z,7.67
2023-03-25T06:14:48.516Z,7.63
2023-03-25T06:19:53.880Z,7.65
2023-03-25T06:24:55.581Z,7.65
2023-03-25T06:29:57.297Z,7.69
2023-03-25T06:34:58.939Z,7.68
2023-03-25T06:40:00.614Z,7.72
2023-03-25T06:45:05.217Z,7.78
2023-03-25T06:50:19.289Z,7.73
2023-03-25T06:55:20.978Z,7.65
2023-03-25T07:00:24.770Z,7.82
2023-03-25T07:05:26.579Z,7.76
2023-03-25T07:10:28.322Z,7.77
2023-03-25T07:15:31.296Z,7.80
2023-03-25T07:20:33.090Z,7.94
2023-03-25T07:25:34.754Z,7.82
2023-03-25T07:30:36.486Z,7.86
2023-03-25T07:35:38.533Z,7.95
2023-03-25T07:40:40.321Z,7.90
2023-03-25T07:45:44.034Z,8.09
2023-03-25T07:50:46.401Z,7.99
2023-03-25T07:55:50.945Z,8.23
2023-03-25T08:00:52.877Z,8.26
2023-03-25T08:05:54.691Z,8.36
2023-03-25T08:10:56.880Z,8.38
2023-03-25T08:15:58.800Z,8.38
2023-03-25T08:21:00.447Z,8.59
2023-03-25T08:26:02.886Z,8.87
2023-03-25T08:31:08.739Z,8.90
2023-03-25T08:36:14.502Z,8.88
2023-03-25T08:41:16.838Z,8.81
2023-03-25T08:46:18.596Z,8.62
2023-03-25T08:51:20.371Z,8.75
2023-03-25T08:56:22.162Z,9.01
2023-03-25T09:01:24.388Z,8.76
2023-03-25T09:06:26.222Z,8.68
2023-03-25T09:11:36.635Z,8.65
2023-03-25T09:16:38.782Z,8.53
2023-03-25T09:21:40.584Z,8.56
2023-03-25T09:26:42.243Z,8.63
2023-03-25T09:31:43.990Z,8.59
2023-03-25T09:36:45.932Z,8.75
2023-03-25T09:41:59.585Z,8.83
2023-03-25T09:47:03.172Z,9.11
2023-03-25T09:52:08.198Z,9.30
2023-03-25T09:57:17.565Z,9.17
2023-03-25T10:02:44.309Z,9.35
2023-03-25T10:07:53.110Z,9.45
2023-03-25T10:13:40.912Z,9.77
2023-03-25T10:19:27.093Z,10.06
2023-03-25T10:24:38.212Z,9.92
2023-03-25T10:30:10.271Z,9.87
2023-03-25T10:35:34.544Z,9.97
2023-03-25T10:40:44.827Z,10.42
2023-03-25T10:45:48.320Z,10.20
2023-03-25T10:50:53.577Z,10.16
2023-03-25T10:56:03.669Z,10.34
2023-03-25T11:01:14.318Z,10.51
2023-03-25T11:06:26.756Z,10.69
2023-03-25T11:11:36.688Z,10.63
2023-03-25T11:16:52.705Z,10.98
2023-03-25T11:22:01.710Z,10.98
2023-03-25T11:27:07.274Z,11.06
2023-03-25T11:32:15.137Z,10.68
2023-03-25T11:37:20.380Z,10.41
2023-03-25T11:42:43.001Z,10.51
2023-03-25T11:47:47.025Z,10.53
2023-03-25T11:52:53.461Z,10.56
2023-03-25T11:57:58.784Z,10.97
2023-03-25T12:03:23.226Z,10.96
2023-03-25T12:08:24.981Z,11.32
2023-03-25T12:13:45.021Z,11.27
2023-03-25T12:19:05.731Z,11.07
2023-03-25T12:24:28.332Z,10.98
2023-03-25T12:29:38.409Z,11.16
2023-03-25T12:35:18.127Z,10.98
2023-03-25T12:40:59.005Z,11.34
2023-03-25T12:46:21.451Z,11.21
2023-03-25T12:51:26.331Z,11.08
2023-03-25T12:56:57.194Z,11.01
2023-03-25T13:02:27.989Z,10.86
2023-03-25T13:07:36.653Z,10.99
2023-03-25T13:12:43.116Z,11.36
2023-03-25T13:17:51.730Z,11.46
2023-03-25T13:22:59.712Z,10.97
2023-03-25T13:28:06.560Z,10.61
2023-03-25T13:33:14.772Z,10.90
2023-03-25T13:38:24.814Z,10.90
2023-03-25T13:43:35.133Z,11.00
2023-03-25T13:48:45.959Z,10.53
2023-03-25T13:53:57.421Z,10.24
2023-03-25T13:59:13.118Z,10.10
2023-03-25T14:04:24.844Z,10.13
2023-03-25T14:09:52.231Z,9.93
2023-03-25T14:15:00.937Z,9.68
2023-03-25T14:20:08.346Z,9.47
2023-03-25T14:25:39.811Z,9.67
2023-03-25T14:30:43.215Z,9.80
2023-03-25T14:35:47.328Z,9.43
2023-03-25T14:41:02.833Z,8.65
2023-03-25T14:46:11.318Z,8.27
2023-03-25T14:51:23.537Z,8.30
2023-03-25T14:56:36.441Z,7.94
2023-03-25T15:01:40.445Z,8.03
2023-03-25T15:06:43.353Z,8.09
2023-03-25T15:11:58.214Z,8.41
2023-03-25T15:17:13.179Z,8.54
2023-03-25T15:22:21.230Z,8.41
2023-03-25T15:27:44.650Z,8.54
2023-03-25T15:32:52.512Z,8.41
2023-03-25T15:38:19.316Z,8.47
2023-03-25T15:44:00.220Z,8.31
2023-03-25T15:49:15.063Z,8.07
2023-03-25T15:54:32.585Z,8.09
2023-03-25T16:00:20.738Z,8.01
2023-03-25T16:05:23.139Z,8.21
2023-03-25T16:10:32.781Z,8.29
2023-03-25T16:15:37.058Z,8.31
2023-03-25T16:20:38.805Z,8.19
2023-03-25T16:25:42.172Z,8.26
2023-03-25T16:30:48.863Z,8.19
2023-03-25T16:36:01.879Z,8.29
2023-03-25T16:41:24.200Z,8.24
2023-03-25T16:46:26.433Z,8.40
2023-03-25T16:51:36.189Z,8.37
2023-03-25T16:56:39.387Z,8.39
2023-03-25T17:01:44.973Z,8.42
2023-03-25T17:06:53.504Z,8.49
2023-03-25T17:11:57.682Z,8.51
2023-03-25T17:17:08.679Z,8.37
2023-03-25T17:22:19.109Z,8.31
2023-03-25T17:27:36.044Z,8.45
2023-03-25T17:32:44.899Z,8.44
2023-03-25T17:37:51.077Z,8.44
2023-03-25T17:42:53.408Z,8.47
2023-03-25T17:47:55.069Z,8.46
2023-03-25T17:52:57.536Z,8.56
2023-03-25T17:57:59.342Z,8.55
2023-03-25T18:03:01.384Z,8.42
2023-03-25T18:08:04.381Z,8.28
2023-03-25T18:13:06.188Z,8.40
2023-03-25T18:18:24.272Z,8.41
2023-03-25T18:23:26.000Z,8.40
2023-03-25T18:28:27.747Z,8.26
2023-03-25T18:33:32.745Z,8.26
2023-03-25T18:38:34.374Z,8.30
2023-03-25T18:43:36.069Z,8.27
2023-03-25T18:48:37.733Z,8.20
2023-03-25T18:53:40.554Z,8.24
2023-03-25T18:58:42.287Z,8.25
2023-03-25T19:03:44.901Z,8.19
2023-03-25T19:08:47.497Z,8.23
2023-03-25T19:13:50.806Z,8.36
2023-03-25T19:18:52.476Z,8.38
2023-03-25T19:23:54.150Z,8.33
2023-03-25T19:28:56.029Z,8.36
2023-03-25T19:33:58.220Z,8.41
2023-03-25T19:39:05.565Z,8.42
2023-03-25T19:44:07.368Z,8.38
2023-03-25T19:49:08.988Z,8.40
2023-03-25T19:54:13.638Z,8.43
2023-03-25T19:59:17.345Z,8.51
2023-03-25T20:04:18.967Z,8.55
2023-03-25T20:09:20.625Z,8.56
2023-03-25T20:14:22.771Z,8.51
2023-03-25T20:19:25.021Z,8.48
2023-03-25T20:24:27.252Z,8.55
2023-03-25T20:29:29.266Z,8.51
2023-03-25T20:34:31.514Z,8.58
2023-03-25T20:39:33.375Z,8.56
2023-03-25T20:44:35.712Z,8.49
2023-03-25T20:49:38.052Z,8.52
2023-03-25T20:54:39.631Z,8.46
2023-03-25T20:59:41.577Z,8.44
2023-03-25T21:04:43.452Z,8.51
2023-03-25T21:09:48.543Z,8.50
2023-03-25T21:14:50.418Z,8.45
2023-03-25T21:19:52.231Z,8.40
2023-03-25T21:24:54.958Z,8.31
2023-03-25T21:29:56.635Z,8.20
2023-03-25T21:34:59.731Z,8.17
2023-03-25T21:40:01.464Z,8.06
2023-03-25T21:45:03.286Z,8.06
2023-03-25T21:50:09.800Z,8.04
2023-03-25T21:55:12.614Z,7.99
2023-03-25T22:00:17.297Z,7.95
2023-03-25T22:05:19.022Z,7.98
2023-03-25T22:10:26.792Z,8.00
2023-03-25T22:15:29.610Z,7.94
2023-03-25T22:20:31.223Z,7.79
2023-03-25T22:25:32.831Z,7.85
2023-03-25T22:30:34.505Z,7.76
2023-03-25T22:35:38.576Z,7.87
2023-03-25T22:40:40.347Z,7.94
2023-03-25T22:45:41.973Z,8.03
2023-03-25T22:50:43.701Z,8.03
2023-03-25T22:55:53.293Z,8.09
2023-03-25T23:00:57.042Z,8.16
2023-03-25T23:06:06.384Z,8.26
2023-03-25T23:11:17.039Z,8.29
2023-03-25T23:16:23.070Z,8.18
2023-03-25T23:21:28.560Z,8.18
2023-03-25T23:26:36.738Z,8.22
2023-03-25T23:31:41.839Z,8.30
2023-03-25T23:36:44.219Z,8.38
2023-03-25T23:41:45.826Z,8.47
2023-03-25T23:46:47.955Z,8.49
2023-03-25T23:51:51.040Z,8.51
2023-03-25T23:56:52.838Z,8.55
